Time,TemperatureF,DewpointF,PressureIn,WindDirection,WindDirectionDegrees,WindSpeedMPH,WindSpeedGustMPH,Humidity,HourlyPrecipIn,Conditions,Clouds,dailyrainin,SoftwareType,DateUTC
2013-04-17 00:04:00,53.6,13.5,29.91,North,352,3.0,8.3,20,0.00,,,-99.99,FreeWX-Wi 1.02,2013-04-17 07:04:00,
2013-04-17 00:09:00,53.8,13.6,29.91,North,353,4.0,8.7,20,0.00,,,-99.99,FreeWX-Wi 1.02,2013-04-17 07:09:00,
2013-04-17 00:14:00,54.1,14.0,29.91,North,353,4.0,8.7,20,0.00,,,-99.99,FreeWX-Wi 1.02,2013-04-17 07:14:00,
2013-04-17 00:19:00,54.0,13.8,29.91,North,353,4.0,8.1,20,0.00,,,-99.99,FreeWX-Wi 1.02,2013-04-17 07:19:00,
2013-04-17 00:24:00,54.5,14.2,29.91,North,355,4.0,11.0,20,0.00,,,-99.99,FreeWX-Wi 1.02,2013-04-17 07:24:00,
2013-04-17 00:29:00,54.7,14.4,29.91,North,356,5.0,8.7,20,0.00,,,-99.99,FreeWX-Wi 1.02,2013-04-17 07:29:00,
2013-04-17 00:34:00,54.9,14.5,29.91,North,356,5.0,9.6,20,0.00,,,-99.99,FreeWX-Wi 1.02,2013-04-17 07:34:00,
2013-04-17 00:39:00,55.0,14.7,29.91,North,355,6.0,11.0,20,0.00,,,-99.99,FreeWX-Wi 1.02,2013-04-17 07:39:00,
2013-04-17 00:44:00,55.2,14.9,29.91,North,357,6.0,11.0,20,0.00,,,-99.99,FreeWX-Wi 1.02,2013-04-17 07:44:00,
2013-04-17 00:49:00,55.4,15.1,29.94,North,357,7.0,11.9,20,0.00,,,-99.99,FreeWX-Wi 1.02,2013-04-17 07:49:00,
2013-04-17 00:54:00,55.2,14.9,29.94,North,357,7.0,11.0,20,0.00,,,-99.99,FreeWX-Wi 1.02,2013-04-17 07:54:00,
2013-04-17 00:59:00,54.7,14.4,29.94,North,355,6.0,8.3,20,0.00,,,-99.99,FreeWX-Wi 1.02,2013-04-17 07:59:00,
2013-04-17 01:04:00,54.9,14.5,29.94,North,355,6.0,8.7,20,0.00,,,-99.99,FreeWX-Wi 1.02,2013-04-17 08:04:00,
2013-04-17 01:09:00,54.5,14.2,29.94,North,356,6.0,7.6,20,0.00,,,-99.99,FreeWX-Wi 1.02,2013-04-17 08:09:00,
2013-04-17 01:14:00,54.3,14.2,29.94,North,356,6.0,7.6,20,0.00,,,-99.99,FreeWX-Wi 1.02,2013-04-17 08:14:00,
2013-04-17 01:19:00,54.1,14.0,29.94,North,355,5.0,8.7,20,0.00,,,-99.99,FreeWX-Wi 1.02,2013-04-17 08:19:00,
2013-04-17 01:24:00,54.3,14.2,29.94,North,354,5.0,7.6,20,0.00,,,-99.99,FreeWX-Wi 1.02,2013-04-17 08:24:00,
2013-04-17 01:29:00,53.8,13.6,29.94,North,355,4.0,10.1,20,0.00,,,-99.99,FreeWX-Wi 1.02,2013-04-17 08:29:00,
2013-04-17 01:34:00,54.1,14.0,29.94,North,356,4.0,8.7,20,0.00,,,-99.99,FreeWX-Wi 1.02,2013-04-17 08:34:00,
2013-04-17 01:39:00,54.0,13.8,29.94,North,354,4.0,10.1,20,0.00,,,-99.99,FreeWX-Wi 1.02,2013-04-17 08:39:00,
2013-04-17 01:44:00,54.5,14.2,29.94,North,353,4.0,8.7,20,0.00,,,-99.99,FreeWX-Wi 1.02,2013-04-17 08:44:00,
2013-04-17 01:49:00,53.8,13.6,29.94,North,349,4.0,7.2,20,0.00,,,-99.99,FreeWX-Wi 1.02,2013-04-17 08:49:00,
2013-04-17 01:54:00,53.2,14.4,29.94,NNW,342,4.0,7.6,21,0.00,,,-99.99,FreeWX-Wi 1.02,2013-04-17 08:54:00,
2013-04-17 01:59:00,53.1,14.2,29.94,NNW,333,4.0,6.3,21,0.00,,,-99.99,FreeWX-Wi 1.02,2013-04-17 08:59:00,
2013-04-17 02:04:00,53.2,14.4,29.94,NNW,330,3.0,6.3,21,0.00,,,-99.99,FreeWX-Wi 1.02,2013-04-17 09:04:00,
2013-04-17 02:09:00,52.9,14.0,29.94,NNW,331,3.0,5.8,21,0.00,,,-99.99,FreeWX-Wi 1.02,2013-04-17 09:09:00,
2013-04-17 02:14:00,53.4,14.5,29.94,NNW,333,3.0,6.3,21,0.00,,,-99.99,FreeWX-Wi 1.02,2013-04-17 09:14:00,
2013-04-17 02:19:00,53.1,14.2,29.94,NNW,341,3.0,6.3,21,0.00,,,-99.99,FreeWX-Wi 1.02,2013-04-17 09:19:00,
2013-04-17 02:24:00,53.1,14.2,29.94,NNW,348,3.0,8.3,21,0.00,,,-99.99,FreeWX-Wi 1.02,2013-04-17 09:24:00,
2013-04-17 02:29:00,53.2,14.4,29.94,North,357,4.0,7.6,21,0.00,,,-99.99,FreeWX-Wi 1.02,2013-04-17 09:29:00,
2013-04-17 02:34:00,53.1,14.2,29.94,North,356,4.0,8.7,21,0.00,,,-99.99,FreeWX-Wi 1.02,2013-04-17 09:34:00,
2013-04-17 02:39:00,53.1,14.2,29.94,North,355,4.0,6.3,21,0.00,,,-99.99,FreeWX-Wi 1.02,2013-04-17 09:39:00,
2013-04-17 02:44:00,52.5,13.8,29.94,North,353,4.0,6.3,21,0.00,,,-99.99,FreeWX-Wi 1.02,2013-04-17 09:44:00,
2013-04-17 02:49:00,52.3,13.6,29.94,North,350,3.0,5.8,21,0.00,,,-99.99,FreeWX-Wi 1.02,2013-04-17 09:49:00,
2013-04-17 02:54:00,52.7,13.8,29.94,NNW,346,3.0,6.3,21,0.00,,,-99.99,FreeWX-Wi 1.02,2013-04-17 09:54:00,
2013-04-17 02:59:00,52.5,13.8,29.94,NNW,343,3.0,8.1,21,0.00,,,-99.99,FreeWX-Wi 1.02,2013-04-17 09:59:00,
2013-04-17 03:04:00,52.5,13.8,29.94,NNW,339,4.0,10.1,21,0.00,,,-99.99,FreeWX-Wi 1.02,2013-04-17 10:04:00,
2013-04-17 03:09:00,52.2,13.5,29.94,NNW,331,4.0,10.5,21,0.00,,,-99.99,FreeWX-Wi 1.02,2013-04-17 10:09:00,
2013-04-17 03:14:00,52.2,13.5,29.94,NNW,327,4.0,5.8,21,0.00,,,-99.99,FreeWX-Wi 1.02,2013-04-17 10:14:00,
2013-04-17 03:19:00,52.0,13.3,29.94,NNW,330,4.0,7.6,21,0.00,,,-99.99,FreeWX-Wi 1.02,2013-04-17 10:19:00,
2013-04-17 03:24:00,52.2,13.5,29.94,NNW,329,4.0,8.1,21,0.00,,,-99.99,FreeWX-Wi 1.02,2013-04-17 10:24:00,
2013-04-17 03:29:00,53.1,14.2,29.94,NNW,328,4.0,8.1,21,0.00,,,-99.99,FreeWX-Wi 1.02,2013-04-17 10:29:00,
2013-04-17 03:34:00,53.2,14.4,29.94,NNW,338,4.0,8.7,21,0.00,,,-99.99,FreeWX-Wi 1.02,2013-04-17 10:34:00,
2013-04-17 03:39:00,52.9,14.0,29.94,NNW,345,4.0,7.6,21,0.00,,,-99.99,FreeWX-Wi 1.02,2013-04-17 10:39:00,
2013-04-17 03:55:00,52.7,13.8,29.94,North,358,5.0,8.7,21,0.00,,,-99.99,FreeWX-Wi 1.02,2013-04-17 10:55:00,
2013-04-17 04:10:00,52.0,13.3,29.94,North,349,4.0,9.6,21,0.00,,,-99.99,FreeWX-Wi 1.02,2013-04-17 11:10:00,
2013-04-17 04:15:00,52.3,13.6,29.94,NNW,348,5.0,6.3,21,0.00,,,-99.99,FreeWX-Wi 1.02,2013-04-17 11:15:00,
2013-04-17 04:20:00,52.2,13.5,29.94,NNW,348,5.0,7.6,21,0.00,,,-99.99,FreeWX-Wi 1.02,2013-04-17 11:20:00,
2013-04-17 04:25:00,52.0,13.3,29.94,NNW,343,4.0,8.3,21,0.00,,,-99.99,FreeWX-Wi 1.02,2013-04-17 11:25:00,
2013-04-17 04:30:00,51.8,13.1,29.94,NNW,332,4.0,10.1,21,0.00,,,-99.99,FreeWX-Wi 1.02,2013-04-17 11:30:00,
2013-04-17 04:35:00,51.3,12.7,29.94,NNW,332,4.0,5.4,21,0.00,,,-99.99,FreeWX-Wi 1.02,2013-04-17 11:35:00,
2013-04-17 04:40:00,51.4,12.7,29.94,NNW,337,4.0,7.6,21,0.00,,,-99.99,FreeWX-Wi 1.02,2013-04-17 11:40:00,
2013-04-17 04:45:00,51.4,12.7,29.94,NNW,332,4.0,8.1,21,0.00,,,-99.99,FreeWX-Wi 1.02,2013-04-17 11:45:00,
2013-04-17 04:50:00,51.3,12.7,29.94,NW,322,3.0,5.8,21,0.00,,,-99.99,FreeWX-Wi 1.02,2013-04-17 11:50:00,
2013-04-17 04:55:00,51.1,12.6,29.94,NW,322,3.0,7.2,21,0.00,,,-99.99,FreeWX-Wi 1.02,2013-04-17 11:55:00,
2013-04-17 05:00:00,51.1,12.6,29.94,NNW,327,3.0,8.1,21,0.00,,,-99.99,FreeWX-Wi 1.02,2013-04-17 12:00:00,
2013-04-17 05:05:00,51.4,12.7,29.94,NW,326,3.0,5.8,21,0.00,,,-99.99,FreeWX-Wi 1.02,2013-04-17 12:05:00,
2013-04-17 05:10:00,51.1,12.6,29.94,NNW,328,3.0,7.6,21,0.00,,,-99.99,FreeWX-Wi 1.02,2013-04-17 12:10:00,
2013-04-17 05:15:00,50.9,12.4,29.94,NNW,332,3.0,8.1,21,0.00,,,-99.99,FreeWX-Wi 1.02,2013-04-17 12:15:00,
2013-04-17 05:20:00,50.5,12.0,29.94,NNW,336,3.0,4.9,21,0.00,,,-99.99,FreeWX-Wi 1.02,2013-04-17 12:20:00,
2013-04-17 05:25:00,50.2,11.8,29.94,NNW,338,3.0,5.4,21,0.00,,,-99.99,FreeWX-Wi 1.02,2013-04-17 12:25:00,
2013-04-17 05:30:00,50.2,11.8,29.94,NNW,335,3.0,5.4,21,0.00,,,-99.99,FreeWX-Wi 1.02,2013-04-17 12:30:00,
2013-04-17 05:35:00,50.2,11.8,29.94,NNW,331,2.0,6.3,21,0.00,,,-99.99,FreeWX-Wi 1.02,2013-04-17 12:35:00,
2013-04-17 05:40:00,50.7,12.2,29.94,NNW,330,3.0,8.3,21,0.00,,,-99.99,FreeWX-Wi 1.02,2013-04-17 12:40:00,
2013-04-17 05:45:00,51.3,12.7,29.94,NNW,327,3.0,7.2,21,0.00,,,-99.99,FreeWX-Wi 1.02,2013-04-17 12:45:00,
2013-04-17 05:50:00,50.7,12.2,29.97,NNW,331,3.0,4.0,21,0.00,,,-99.99,FreeWX-Wi 1.02,2013-04-17 12:50:00,
2013-04-17 05:55:00,50.5,12.0,29.97,NNW,335,3.0,6.3,21,0.00,,,-99.99,FreeWX-Wi 1.02,2013-04-17 12:55:00,
2013-04-17 06:00:00,50.9,12.4,29.97,NNW,345,3.0,8.1,21,0.00,,,-99.99,FreeWX-Wi 1.02,2013-04-17 13:00:00,
2013-04-17 06:05:00,52.0,13.3,29.97,North,351,3.0,8.3,21,0.00,,,-99.99,FreeWX-Wi 1.02,2013-04-17 13:05:00,
2013-04-17 06:10:00,52.0,13.3,29.97,North,354,3.0,8.3,21,0.00,,,-99.99,FreeWX-Wi 1.02,2013-04-17 13:10:00,
2013-04-17 06:15:00,51.8,13.1,29.97,North,358,4.0,6.3,21,0.00,,,-99.99,FreeWX-Wi 1.02,2013-04-17 13:15:00,
2013-04-17 06:20:00,51.8,13.1,29.97,North,358,4.0,8.1,21,0.00,,,-99.99,FreeWX-Wi 1.02,2013-04-17 13:20:00,
2013-04-17 06:25:00,51.3,12.7,29.97,North,357,4.0,5.4,21,0.00,,,-99.99,FreeWX-Wi 1.02,2013-04-17 13:25:00,
2013-04-17 06:30:00,51.4,12.7,29.97,North,356,4.0,5.8,21,0.00,,,-99.99,FreeWX-Wi 1.02,2013-04-17 13:30:00,
2013-04-17 06:35:00,50.9,12.4,29.97,North,355,4.0,4.0,21,0.00,,,-99.99,FreeWX-Wi 1.02,2013-04-17 13:35:00,
2013-04-17 06:40:00,50.7,12.2,29.97,North,355,3.0,5.4,21,0.00,,,-99.99,FreeWX-Wi 1.02,2013-04-17 13:40:00,
2013-04-17 06:45:00,50.7,12.2,29.97,NNW,345,3.0,8.3,21,0.00,,,-99.99,FreeWX-Wi 1.02,2013-04-17 13:45:00,
2013-04-17 06:50:00,50.9,12.4,29.97,NNW,333,3.0,7.6,21,0.00,,,-99.99,FreeWX-Wi 1.02,2013-04-17 13:50:00,
2013-04-17 06:55:00,51.4,12.7,29.97,NW,323,3.0,4.9,21,0.00,,,-99.99,FreeWX-Wi 1.02,2013-04-17 13:55:00,
2013-04-17 07:00:00,51.8,13.1,29.97,NW,318,3.0,4.9,21,0.00,,,-99.99,FreeWX-Wi 1.02,2013-04-17 14:00:00,
2013-04-17 07:05:00,52.0,13.3,30.00,NW,313,2.0,4.9,21,0.00,,,-99.99,FreeWX-Wi 1.02,2013-04-17 14:05:00,
2013-04-17 07:10:00,52.7,13.8,30.00,NW,311,2.0,8.7,21,0.00,,,-99.99,FreeWX-Wi 1.02,2013-04-17 14:10:00,
2013-04-17 07:15:00,56.1,15.6,30.00,NW,322,3.0,11.0,20,0.00,,,-99.99,FreeWX-Wi 1.02,2013-04-17 14:15:00,
2013-04-17 07:20:00,57.0,16.3,30.00,NNW,334,4.0,12.3,20,0.00,,,-99.99,FreeWX-Wi 1.02,2013-04-17 14:20:00,
2013-04-17 07:25:00,57.2,15.3,30.00,NNW,341,4.0,11.0,19,0.00,,,-99.99,FreeWX-Wi 1.02,2013-04-17 14:25:00,
2013-04-17 07:30:00,57.6,15.6,30.00,NNW,346,5.0,10.5,19,0.00,,,-99.99,FreeWX-Wi 1.02,2013-04-17 14:30:00,
2013-04-17 07:35:00,57.7,15.8,30.00,North,350,6.0,10.1,19,0.00,,,-99.99,FreeWX-Wi 1.02,2013-04-17 14:35:00,
2013-04-17 07:40:00,57.9,16.0,30.00,North,352,6.0,8.7,19,0.00,,,-99.99,FreeWX-Wi 1.02,2013-04-17 14:40:00,
2013-04-17 07:45:00,58.1,16.2,30.00,North,352,6.0,7.2,19,0.00,,,-99.99,FreeWX-Wi 1.02,2013-04-17 14:45:00,
2013-04-17 07:50:00,58.6,16.5,30.03,North,352,5.0,6.3,19,0.00,,,-99.99,FreeWX-Wi 1.02,2013-04-17 14:50:00,
2013-04-17 07:55:00,58.8,16.7,30.03,North,351,5.0,5.4,19,0.00,,,-99.99,FreeWX-Wi 1.02,2013-04-17 14:55:00,
2013-04-17 08:00:00,59.4,17.1,30.03,North,350,4.0,8.7,19,0.00,,,-99.99,FreeWX-Wi 1.02,2013-04-17 15:00:00,
2013-04-17 08:05:00,59.7,17.4,30.03,NNW,345,4.0,7.6,19,0.00,,,-99.99,FreeWX-Wi 1.02,2013-04-17 15:05:00,
2013-04-17 08:10:00,59.7,17.4,30.03,NNW,345,4.0,10.1,19,0.00,,,-99.99,FreeWX-Wi 1.02,2013-04-17 15:10:00,
2013-04-17 08:15:00,60.1,17.8,30.03,NNW,346,4.0,10.5,19,0.00,,,-99.99,FreeWX-Wi 1.02,2013-04-17 15:15:00,
2013-04-17 08:20:00,60.3,17.8,30.03,NNW,348,4.0,8.3,19,0.00,,,-99.99,FreeWX-Wi 1.02,2013-04-17 15:20:00,
2013-04-17 08:25:00,60.8,18.3,30.03,North,350,5.0,9.6,19,0.00,,,-99.99,FreeWX-Wi 1.02,2013-04-17 15:25:00,
2013-04-17 08:30:00,61.2,18.5,30.03,North,349,5.0,8.7,19,0.00,,,-99.99,FreeWX-Wi 1.02,2013-04-17 15:30:00,
2013-04-17 08:35:00,61.0,18.5,30.03,North,353,6.0,10.1,19,0.00,,,-99.99,FreeWX-Wi 1.02,2013-04-17 15:35:00,
2013-04-17 08:40:00,61.5,18.9,30.03,North,351,6.0,11.9,19,0.00,,,-99.99,FreeWX-Wi 1.02,2013-04-17 15:40:00,
2013-04-17 08:45:00,61.7,19.0,30.03,NNW,348,6.0,9.6,19,0.00,,,-99.99,FreeWX-Wi 1.02,2013-04-17 15:45:00,
2013-04-17 08:50:00,61.2,18.5,30.03,NNW,346,6.0,13.2,19,0.00,,,-99.99,FreeWX-Wi 1.02,2013-04-17 15:50:00,
2013-04-17 08:55:00,61.5,18.9,30.03,NNW,347,6.0,15.4,19,0.00,,,-99.99,FreeWX-Wi 1.02,2013-04-17 15:55:00,
2013-04-17 09:00:00,61.9,19.2,30.03,North,352,8.0,17.0,19,0.00,,,-99.99,FreeWX-Wi 1.02,2013-04-17 16:00:00,
2013-04-17 09:05:00,62.1,19.4,30.03,North,353,8.0,18.8,19,0.00,,,-99.99,FreeWX-Wi 1.02,2013-04-17 16:05:00,
2013-04-17 09:10:00,62.4,19.6,30.03,North,358,8.0,12.3,19,0.00,,,-99.99,FreeWX-Wi 1.02,2013-04-17 16:10:00,
2013-04-17 09:15:00,63.0,18.9,30.03,North,358,8.0,15.0,18,0.00,,,-99.99,FreeWX-Wi 1.02,2013-04-17 16:15:00,
2013-04-17 09:20:00,63.1,19.0,30.03,North,357,8.0,10.5,18,0.00,,,-99.99,FreeWX-Wi 1.02,2013-04-17 16:20:00,
2013-04-17 09:25:00,63.9,19.6,30.03,North,358,8.0,11.0,18,0.00,,,-99.99,FreeWX-Wi 1.02,2013-04-17 16:25:00,
2013-04-17 09:30:00,63.1,19.0,30.03,North,356,7.0,12.3,18,0.00,,,-99.99,FreeWX-Wi 1.02,2013-04-17 16:30:00,
2013-04-17 09:35:00,63.5,19.2,30.03,North,357,7.0,15.4,18,0.00,,,-99.99,FreeWX-Wi 1.02,2013-04-17 16:35:00,
2013-04-17 09:40:00,63.7,19.4,30.03,North,357,8.0,17.4,18,0.00,,,-99.99,FreeWX-Wi 1.02,2013-04-17 16:40:00,
2013-04-17 09:45:00,64.2,19.8,30.03,North,2,9.0,17.4,18,0.00,,,-99.99,FreeWX-Wi 1.02,2013-04-17 16:45:00,
2013-04-17 09:50:00,64.2,19.8,30.06,North,8,10.0,17.4,18,0.00,,,-99.99,FreeWX-Wi 1.02,2013-04-17 16:50:00,
2013-04-17 09:55:00,64.0,19.8,30.06,North,10,10.0,13.2,18,0.00,,,-99.99,FreeWX-Wi 1.02,2013-04-17 16:55:00,
2013-04-17 10:00:00,64.8,20.3,30.03,NNE,15,11.0,18.3,18,0.00,,,-99.99,FreeWX-Wi 1.02,2013-04-17 17:00:00,
2013-04-17 10:05:00,64.8,20.3,30.03,NNE,19,12.0,17.4,18,0.00,,,-99.99,FreeWX-Wi 1.02,2013-04-17 17:05:00,
2013-04-17 10:10:00,65.5,20.8,30.03,NNE,22,12.0,17.4,18,0.00,,,-99.99,FreeWX-Wi 1.02,2013-04-17 17:10:00,
2013-04-17 10:15:00,64.6,20.1,30.03,NNE,20,12.0,15.9,18,0.00,,,-99.99,FreeWX-Wi 1.02,2013-04-17 17:15:00,
2013-04-17 10:20:00,65.1,20.5,30.06,NNE,17,12.0,15.0,18,0.00,,,-99.99,FreeWX-Wi 1.02,2013-04-17 17:20:00,
2013-04-17 10:25:00,65.7,21.0,30.06,NNE,16,12.0,15.4,18,0.00,,,-99.99,FreeWX-Wi 1.02,2013-04-17 17:25:00,
2013-04-17 10:30:00,66.0,21.4,30.06,NNE,14,12.0,18.3,18,0.00,,,-99.99,FreeWX-Wi 1.02,2013-04-17 17:30:00,
2013-04-17 10:35:00,65.7,21.0,30.03,NNE,12,11.0,15.0,18,0.00,,,-99.99,FreeWX-Wi 1.02,2013-04-17 17:35:00,
2013-04-17 10:40:00,66.0,21.4,30.03,North,11,11.0,17.0,18,0.00,,,-99.99,FreeWX-Wi 1.02,2013-04-17 17:40:00,
2013-04-17 10:45:00,66.4,20.3,30.06,NNE,15,12.0,25.5,17,0.00,,,-99.99,FreeWX-Wi 1.02,2013-04-17 17:45:00,
2013-04-17 10:50:00,66.4,20.3,30.06,NNE,18,12.0,23.3,17,0.00,,,-99.99,FreeWX-Wi 1.02,2013-04-17 17:50:00,
2013-04-17 10:55:00,66.7,20.5,30.06,NNE,21,12.0,15.4,17,0.00,,,-99.99,FreeWX-Wi 1.02,2013-04-17 17:55:00,
2013-04-17 11:00:00,66.7,20.5,30.06,NNE,21,12.0,17.4,17,0.00,,,-99.99,FreeWX-Wi 1.02,2013-04-17 18:00:00,
2013-04-17 11:05:00,66.9,20.7,30.03,NNE,24,13.0,17.0,17,0.00,,,-99.99,FreeWX-Wi 1.02,2013-04-17 18:05:00,
2013-04-17 11:10:00,66.7,20.5,30.03,NNE,23,13.0,20.1,17,0.00,,,-99.99,FreeWX-Wi 1.02,2013-04-17 18:10:00,
2013-04-17 11:15:00,66.4,20.3,30.03,NNE,20,12.0,15.4,17,0.00,,,-99.99,FreeWX-Wi 1.02,2013-04-17 18:15:00,
2013-04-17 11:20:00,67.5,21.2,30.06,NNE,17,12.0,16.8,17,0.00,,,-99.99,FreeWX-Wi 1.02,2013-04-17 18:20:00,
2013-04-17 11:25:00,68.0,21.6,30.06,NNE,16,12.0,19.7,17,0.00,,,-99.99,FreeWX-Wi 1.02,2013-04-17 18:25:00,
2013-04-17 11:30:00,68.2,21.7,30.03,NNE,17,13.0,19.2,17,0.00,,,-99.99,FreeWX-Wi 1.02,2013-04-17 18:30:00,
2013-04-17 11:35:00,68.2,21.7,30.03,NNE,18,12.0,21.0,17,0.00,,,-99.99,FreeWX-Wi 1.02,2013-04-17 18:35:00,
2013-04-17 11:40:00,68.7,22.1,30.03,NNE,22,12.0,17.4,17,0.00,,,-99.99,FreeWX-Wi 1.02,2013-04-17 18:40:00,
2013-04-17 11:45:00,69.1,22.5,30.03,NNE,25,12.0,21.0,17,0.00,,,-99.99,FreeWX-Wi 1.02,2013-04-17 18:45:00,
2013-04-17 11:50:00,69.4,22.8,30.03,NNE,30,12.0,19.7,17,0.00,,,-99.99,FreeWX-Wi 1.02,2013-04-17 18:50:00,
2013-04-17 11:55:00,69.6,22.8,30.03,NE,34,12.0,15.9,17,0.00,,,-99.99,FreeWX-Wi 1.02,2013-04-17 18:55:00,
2013-04-17 12:00:00,70.5,23.5,30.03,NE,41,11.0,15.4,17,0.00,,,-99.99,FreeWX-Wi 1.02,2013-04-17 19:00:00,
2013-04-17 12:05:00,70.0,23.2,30.03,NE,41,11.0,16.3,17,0.00,,,-99.99,FreeWX-Wi 1.02,2013-04-17 19:05:00,
2013-04-17 12:10:00,70.2,23.4,30.03,NE,40,11.0,17.4,17,0.00,,,-99.99,FreeWX-Wi 1.02,2013-04-17 19:10:00,
2013-04-17 12:15:00,71.4,24.3,30.03,NE,43,10.0,23.7,17,0.00,,,-99.99,FreeWX-Wi 1.02,2013-04-17 19:15:00,
2013-04-17 12:20:00,71.1,24.1,30.03,NE,40,10.0,18.8,17,0.00,,,-99.99,FreeWX-Wi 1.02,2013-04-17 19:20:00,
2013-04-17 12:25:00,71.4,24.3,30.03,NE,40,10.0,19.7,17,0.00,,,-99.99,FreeWX-Wi 1.02,2013-04-17 19:25:00,
2013-04-17 12:30:00,70.3,23.5,30.03,NNE,33,11.0,16.8,17,0.00,,,-99.99,FreeWX-Wi 1.02,2013-04-17 19:30:00,
2013-04-17 12:35:00,69.3,22.6,30.03,NNE,33,11.0,17.4,17,0.00,,,-99.99,FreeWX-Wi 1.02,2013-04-17 19:35:00,
2013-04-17 12:40:00,70.5,23.5,30.03,NNE,30,11.0,20.1,17,0.00,,,-99.99,FreeWX-Wi 1.02,2013-04-17 19:40:00,
2013-04-17 12:45:00,71.4,24.3,30.03,NNE,26,12.0,15.4,17,0.00,,,-99.99,FreeWX-Wi 1.02,2013-04-17 19:45:00,
2013-04-17 12:50:00,70.9,23.9,30.03,NNE,27,12.0,21.5,17,0.00,,,-99.99,FreeWX-Wi 1.02,2013-04-17 19:50:00,
2013-04-17 12:55:00,70.7,23.7,30.03,NNE,22,12.0,17.0,17,0.00,,,-99.99,FreeWX-Wi 1.02,2013-04-17 19:55:00,
2013-04-17 13:00:00,70.9,23.9,30.03,NNE,23,11.0,15.0,17,0.00,,,-99.99,FreeWX-Wi 1.02,2013-04-17 20:00:00,
2013-04-17 13:05:00,72.0,23.4,30.03,NNE,27,11.0,19.7,16,0.00,,,-99.99,FreeWX-Wi 1.02,2013-04-17 20:05:00,
2013-04-17 13:10:00,72.0,23.4,30.03,NNE,28,11.0,13.2,16,0.00,,,-99.99,FreeWX-Wi 1.02,2013-04-17 20:10:00,
2013-04-17 13:15:00,72.0,23.4,30.03,NNE,27,12.0,22.8,16,0.00,,,-99.99,FreeWX-Wi 1.02,2013-04-17 20:15:00,
2013-04-17 13:20:00,72.1,23.5,30.03,NNE,28,11.0,22.8,16,0.00,,,-99.99,FreeWX-Wi 1.02,2013-04-17 20:20:00,
2013-04-17 13:25:00,72.9,24.1,30.03,NNE,33,11.0,15.4,16,0.00,,,-99.99,FreeWX-Wi 1.02,2013-04-17 20:25:00,
2013-04-17 13:30:00,72.7,23.9,30.03,NNE,33,12.0,21.9,16,0.00,,,-99.99,FreeWX-Wi 1.02,2013-04-17 20:30:00,
2013-04-17 13:35:00,72.5,23.7,30.03,NNE,31,12.0,25.5,16,0.00,,,-99.99,FreeWX-Wi 1.02,2013-04-17 20:35:00,
2013-04-17 13:40:00,73.0,24.3,30.03,NNE,31,11.0,14.5,16,0.00,,,-99.99,FreeWX-Wi 1.02,2013-04-17 20:40:00,
2013-04-17 13:45:00,72.7,23.9,30.03,NNE,28,10.0,12.8,16,0.00,,,-99.99,FreeWX-Wi 1.02,2013-04-17 20:45:00,
2013-04-17 13:50:00,73.6,24.6,30.03,NNE,28,10.0,13.6,16,0.00,,,-99.99,FreeWX-Wi 1.02,2013-04-17 20:50:00,
2013-04-17 13:55:00,72.7,23.9,30.03,NNE,28,10.0,18.8,16,0.00,,,-99.99,FreeWX-Wi 1.02,2013-04-17 20:55:00,
2013-04-17 14:00:00,73.2,24.3,30.03,NNE,28,10.0,23.3,16,0.00,,,-99.99,FreeWX-Wi 1.02,2013-04-17 21:00:00,
2013-04-17 14:05:00,73.4,24.4,30.03,NNE,27,10.0,17.4,16,0.00,,,-99.99,FreeWX-Wi 1.02,2013-04-17 21:05:00,
2013-04-17 14:10:00,73.9,25.0,30.03,NNE,31,11.0,17.0,16,0.00,,,-99.99,FreeWX-Wi 1.02,2013-04-17 21:10:00,
2013-04-17 14:15:00,73.0,24.3,30.03,NNE,30,12.0,17.4,16,0.00,,,-99.99,FreeWX-Wi 1.02,2013-04-17 21:15:00,
2013-04-17 14:20:00,72.5,23.7,30.03,NNE,25,12.0,17.4,16,0.00,,,-99.99,FreeWX-Wi 1.02,2013-04-17 21:20:00,
2013-04-17 14:25:00,73.9,25.0,30.03,NNE,28,11.0,15.4,16,0.00,,,-99.99,FreeWX-Wi 1.02,2013-04-17 21:25:00,
2013-04-17 14:31:00,74.8,25.7,30.03,NNE,29,10.0,16.8,16,0.00,,,-99.99,FreeWX-Wi 1.02,2013-04-17 21:31:00,
2013-04-17 14:36:00,75.4,24.4,30.03,NNE,32,10.0,12.8,15,0.00,,,-99.99,FreeWX-Wi 1.02,2013-04-17 21:36:00,
2013-04-17 14:41:00,73.6,24.6,30.03,NNE,33,10.0,17.4,16,0.00,,,-99.99,FreeWX-Wi 1.02,2013-04-17 21:41:00,
2013-04-17 14:46:00,73.6,24.6,30.00,NNE,33,10.0,21.9,16,0.00,,,-99.99,FreeWX-Wi 1.02,2013-04-17 21:46:00,
2013-04-17 14:51:00,72.9,24.1,30.00,NE,34,11.0,21.0,16,0.00,,,-99.99,FreeWX-Wi 1.02,2013-04-17 21:51:00,
2013-04-17 14:56:00,72.7,23.9,30.00,NNE,28,11.0,16.3,16,0.00,,,-99.99,FreeWX-Wi 1.02,2013-04-17 21:56:00,
2013-04-17 15:01:00,73.6,24.6,30.03,NNE,26,11.0,21.0,16,0.00,,,-99.99,FreeWX-Wi 1.02,2013-04-17 22:01:00,
2013-04-17 15:06:00,73.9,25.0,30.03,NNE,25,12.0,17.0,16,0.00,,,-99.99,FreeWX-Wi 1.02,2013-04-17 22:06:00,
2013-04-17 15:11:00,74.1,25.0,30.03,NNE,22,11.0,15.0,16,0.00,,,-99.99,FreeWX-Wi 1.02,2013-04-17 22:11:00,
2013-04-17 15:16:00,73.2,24.3,30.03,NNE,21,12.0,23.3,16,0.00,,,-99.99,FreeWX-Wi 1.02,2013-04-17 22:16:00,
2013-04-17 15:21:00,72.7,23.9,30.00,NNE,21,12.0,16.3,16,0.00,,,-99.99,FreeWX-Wi 1.02,2013-04-17 22:21:00,
2013-04-17 15:26:00,73.6,24.6,30.00,NNE,26,12.0,14.1,16,0.00,,,-99.99,FreeWX-Wi 1.02,2013-04-17 22:26:00,
2013-04-17 15:31:00,73.8,24.8,30.03,NNE,25,12.0,18.3,16,0.00,,,-99.99,FreeWX-Wi 1.02,2013-04-17 22:31:00,
2013-04-17 15:36:00,74.5,25.3,30.03,NNE,24,11.0,13.2,16,0.00,,,-99.99,FreeWX-Wi 1.02,2013-04-17 22:36:00,
2013-04-17 15:41:00,74.3,25.2,30.03,NNE,25,11.0,16.8,16,0.00,,,-99.99,FreeWX-Wi 1.02,2013-04-17 22:41:00,
2013-04-17 15:46:00,73.8,24.8,30.00,NNE,24,11.0,16.8,16,0.00,,,-99.99,FreeWX-Wi 1.02,2013-04-17 22:46:00,
2013-04-17 15:51:00,72.9,24.1,30.00,NNE,25,10.0,17.9,16,0.00,,,-99.99,FreeWX-Wi 1.02,2013-04-17 22:51:00,
2013-04-17 15:56:00,73.4,24.4,30.00,NNE,25,11.0,19.7,16,0.00,,,-99.99,FreeWX-Wi 1.02,2013-04-17 22:56:00,
2013-04-17 16:01:00,75.2,24.4,30.00,NNE,28,11.0,18.3,15,0.00,,,-99.99,FreeWX-Wi 1.02,2013-04-17 23:01:00,
2013-04-17 16:06:00,75.6,24.6,30.00,NNE,30,11.0,17.4,15,0.00,,,-99.99,FreeWX-Wi 1.02,2013-04-17 23:06:00,
2013-04-17 16:11:00,74.3,25.2,30.00,NNE,30,11.0,20.1,16,0.00,,,-99.99,FreeWX-Wi 1.02,2013-04-17 23:11:00,
2013-04-17 16:16:00,73.0,24.3,30.00,NNE,32,12.0,17.4,16,0.00,,,-99.99,FreeWX-Wi 1.02,2013-04-17 23:16:00,
2013-04-17 16:21:00,73.9,25.0,30.00,NNE,33,12.0,19.7,16,0.00,,,-99.99,FreeWX-Wi 1.02,2013-04-17 23:21:00,
2013-04-17 16:31:00,74.5,25.3,30.00,NE,34,11.0,15.9,16,0.00,,,-99.99,FreeWX-Wi 1.02,2013-04-17 23:31:00,
2013-04-17 16:36:00,72.9,24.1,30.00,NNE,32,11.0,18.3,16,0.00,,,-99.99,FreeWX-Wi 1.02,2013-04-17 23:36:00,
2013-04-17 16:41:00,73.0,24.3,30.00,NE,34,11.0,18.8,16,0.00,,,-99.99,FreeWX-Wi 1.02,2013-04-17 23:41:00,
2013-04-17 16:46:00,72.9,24.1,30.00,NE,35,11.0,21.0,16,0.00,,,-99.99,FreeWX-Wi 1.02,2013-04-17 23:46:00,
2013-04-17 16:51:00,72.0,23.4,30.00,NNE,31,11.0,17.9,16,0.00,,,-99.99,FreeWX-Wi 1.02,2013-04-17 23:51:00,
2013-04-17 16:56:00,72.9,24.1,30.00,NNE,28,11.0,15.0,16,0.00,,,-99.99,FreeWX-Wi 1.02,2013-04-17 23:56:00,
2013-04-17 17:01:00,72.9,24.1,30.00,NNE,27,11.0,15.4,16,0.00,,,-99.99,FreeWX-Wi 1.02,2013-04-18 00:01:00,
2013-04-17 17:06:00,72.5,23.7,30.00,NNE,26,11.0,13.2,16,0.00,,,-99.99,FreeWX-Wi 1.02,2013-04-18 00:06:00,
2013-04-17 17:11:00,73.0,24.3,30.00,NNE,26,11.0,17.0,16,0.00,,,-99.99,FreeWX-Wi 1.02,2013-04-18 00:11:00,
2013-04-17 17:16:00,72.9,24.1,30.00,NNE,25,10.0,19.2,16,0.00,,,-99.99,FreeWX-Wi 1.02,2013-04-18 00:16:00,
2013-04-17 17:21:00,72.9,24.1,30.00,NNE,28,11.0,21.9,16,0.00,,,-99.99,FreeWX-Wi 1.02,2013-04-18 00:21:00,
2013-04-17 17:27:00,72.5,23.7,30.00,NNE,30,11.0,17.0,16,0.00,,,-99.99,FreeWX-Wi 1.02,2013-04-18 00:27:00,
2013-04-17 17:32:00,71.6,23.0,30.03,NNE,31,11.0,17.4,16,0.00,,,-99.99,FreeWX-Wi 1.02,2013-04-18 00:32:00,
2013-04-17 17:37:00,72.3,23.5,30.03,NE,34,11.0,15.9,16,0.00,,,-99.99,FreeWX-Wi 1.02,2013-04-18 00:37:00,
2013-04-17 17:47:00,70.7,23.7,30.03,NNE,32,12.0,17.0,17,0.00,,,-99.99,FreeWX-Wi 1.02,2013-04-18 00:47:00,
2013-04-17 17:52:00,70.5,23.5,30.03,NNE,31,12.0,20.1,17,0.00,,,-99.99,FreeWX-Wi 1.02,2013-04-18 00:52:00,
2013-04-17 17:57:00,70.2,23.4,30.03,NNE,29,12.0,17.4,17,0.00,,,-99.99,FreeWX-Wi 1.02,2013-04-18 00:57:00,
2013-04-17 18:02:00,69.8,23.0,30.03,NNE,28,11.0,12.8,17,0.00,,,-99.99,FreeWX-Wi 1.02,2013-04-18 01:02:00,
2013-04-17 18:07:00,70.0,23.2,30.03,NNE,28,12.0,15.4,17,0.00,,,-99.99,FreeWX-Wi 1.02,2013-04-18 01:07:00,
2013-04-17 18:12:00,69.6,22.8,30.03,NNE,30,12.0,17.4,17,0.00,,,-99.99,FreeWX-Wi 1.02,2013-04-18 01:12:00,
2013-04-17 18:17:00,69.6,22.8,30.03,NNE,31,11.0,15.9,17,0.00,,,-99.99,FreeWX-Wi 1.02,2013-04-18 01:17:00,
2013-04-17 18:22:00,69.3,22.6,30.03,NNE,31,11.0,15.0,17,0.00,,,-99.99,FreeWX-Wi 1.02,2013-04-18 01:22:00,
2013-04-17 18:27:00,69.1,22.5,30.03,NNE,32,11.0,15.0,17,0.00,,,-99.99,FreeWX-Wi 1.02,2013-04-18 01:27:00,
2013-04-17 18:32:00,68.7,22.1,30.03,NE,34,11.0,15.9,17,0.00,,,-99.99,FreeWX-Wi 1.02,2013-04-18 01:32:00,
2013-04-17 18:37:00,68.5,21.9,30.03,NE,34,11.0,18.8,17,0.00,,,-99.99,FreeWX-Wi 1.02,2013-04-18 01:37:00,
2013-04-17 18:42:00,68.4,21.9,30.03,NE,36,10.0,11.4,17,0.00,,,-99.99,FreeWX-Wi 1.02,2013-04-18 01:42:00,
2013-04-17 18:47:00,68.2,21.7,30.03,NE,38,10.0,16.3,17,0.00,,,-99.99,FreeWX-Wi 1.02,2013-04-18 01:47:00,
2013-04-17 18:52:00,68.0,21.6,30.03,NE,40,10.0,16.3,17,0.00,,,-99.99,FreeWX-Wi 1.02,2013-04-18 01:52:00,
2013-04-17 18:57:00,68.0,21.6,30.03,NE,39,10.0,16.8,17,0.00,,,-99.99,FreeWX-Wi 1.02,2013-04-18 01:57:00,
2013-04-17 19:02:00,67.6,21.2,30.03,NE,37,10.0,14.1,17,0.00,,,-99.99,FreeWX-Wi 1.02,2013-04-18 02:02:00,
2013-04-17 19:07:00,67.3,21.0,30.03,NE,36,10.0,16.8,17,0.00,,,-99.99,FreeWX-Wi 1.02,2013-04-18 02:07:00,
2013-04-17 19:12:00,67.3,21.0,30.03,NE,34,10.0,15.4,17,0.00,,,-99.99,FreeWX-Wi 1.02,2013-04-18 02:12:00,
2013-04-17 19:17:00,67.1,20.8,30.03,NNE,32,10.0,17.0,17,0.00,,,-99.99,FreeWX-Wi 1.02,2013-04-18 02:17:00,
2013-04-17 19:22:00,66.9,20.7,30.03,NNE,31,10.0,15.4,17,0.00,,,-99.99,FreeWX-Wi 1.02,2013-04-18 02:22:00,
2013-04-17 19:27:00,66.9,20.7,30.03,NNE,33,10.0,15.9,17,0.00,,,-99.99,FreeWX-Wi 1.02,2013-04-18 02:27:00,
2013-04-17 19:32:00,66.7,20.5,30.06,NE,34,10.0,16.8,17,0.00,,,-99.99,FreeWX-Wi 1.02,2013-04-18 02:32:00,
2013-04-17 19:37:00,66.6,20.5,30.06,NE,35,11.0,15.0,17,0.00,,,-99.99,FreeWX-Wi 1.02,2013-04-18 02:37:00,
2013-04-17 19:42:00,66.4,20.3,30.06,NE,38,11.0,15.0,17,0.00,,,-99.99,FreeWX-Wi 1.02,2013-04-18 02:42:00,
2013-04-17 19:47:00,66.4,20.3,30.06,NE,38,11.0,15.9,17,0.00,,,-99.99,FreeWX-Wi 1.02,2013-04-18 02:47:00,
2013-04-17 19:52:00,66.0,21.4,30.06,NE,37,11.0,15.0,18,0.00,,,-99.99,FreeWX-Wi 1.02,2013-04-18 02:52:00,
2013-04-17 19:57:00,65.8,21.2,30.06,NE,35,10.0,10.0,18,0.00,,,-99.99,FreeWX-Wi 1.02,2013-04-18 02:57:00,
2013-04-17 20:02:00,65.1,20.5,30.06,NE,36,10.0,10.1,18,0.00,,,-99.99,FreeWX-Wi 1.02,2013-04-18 03:02:00,
2013-04-17 20:07:00,65.3,20.7,30.06,NNE,33,9.0,11.0,18,0.00,,,-99.99,FreeWX-Wi 1.02,2013-04-18 03:07:00,
2013-04-17 20:12:00,64.9,20.5,30.06,NNE,32,8.0,8.0,18,0.00,,,-99.99,FreeWX-Wi 1.02,2013-04-18 03:12:00,
2013-04-17 20:17:00,64.4,19.9,30.06,NNE,30,7.0,7.6,18,0.00,,,-99.99,FreeWX-Wi 1.02,2013-04-18 03:17:00,
2013-04-17 20:22:00,64.2,19.8,30.06,NNE,30,6.0,7.6,18,0.00,,,-99.99,FreeWX-Wi 1.02,2013-04-18 03:22:00,
2013-04-17 20:27:00,63.9,19.6,30.06,NNE,31,6.0,6.3,18,0.00,,,-99.99,FreeWX-Wi 1.02,2013-04-18 03:27:00,
2013-04-17 20:32:00,63.3,19.0,30.09,NNE,29,5.0,5.8,18,0.00,,,-99.99,FreeWX-Wi 1.02,2013-04-18 03:32:00,
2013-04-17 20:37:00,63.0,18.9,30.09,NNE,30,4.0,4.0,18,0.00,,,-99.99,FreeWX-Wi 1.02,2013-04-18 03:37:00,
2013-04-17 20:42:00,62.6,18.5,30.09,NNE,30,4.0,4.0,18,0.00,,,-99.99,FreeWX-Wi 1.02,2013-04-18 03:42:00,
2013-04-17 20:47:00,61.7,19.0,30.09,NNE,30,3.0,4.5,19,0.00,,,-99.99,FreeWX-Wi 1.02,2013-04-18 03:47:00,
2013-04-17 20:52:00,62.1,19.4,30.09,NNE,30,2.0,4.0,19,0.00,,,-99.99,FreeWX-Wi 1.02,2013-04-18 03:52:00,
2013-04-17 20:57:00,63.1,19.0,30.09,NNE,27,2.0,8.7,18,0.00,,,-99.99,FreeWX-Wi 1.02,2013-04-18 03:57:00,
2013-04-17 21:02:00,63.7,19.4,30.09,NNE,22,2.0,6.3,18,0.00,,,-99.99,FreeWX-Wi 1.02,2013-04-18 04:02:00,
2013-04-17 21:07:00,63.5,19.2,30.09,NNE,17,2.0,5.4,18,0.00,,,-99.99,FreeWX-Wi 1.02,2013-04-18 04:07:00,
2013-04-17 21:12:00,61.7,19.0,30.09,NNE,13,2.0,0.0,19,0.00,,,-99.99,FreeWX-Wi 1.02,2013-04-18 04:12:00,
2013-04-17 21:17:00,61.2,18.5,30.09,North,8,2.0,4.9,19,0.00,,,-99.99,FreeWX-Wi 1.02,2013-04-18 04:17:00,
2013-04-17 21:22:00,60.3,17.8,30.09,North,4,1.0,2.7,19,0.00,,,-99.99,FreeWX-Wi 1.02,2013-04-18 04:22:00,
2013-04-17 21:27:00,59.4,17.1,30.09,North,3,1.0,2.7,19,0.00,,,-99.99,FreeWX-Wi 1.02,2013-04-18 04:27:00,
2013-04-17 21:32:00,60.1,17.8,30.09,North,3,1.0,4.0,19,0.00,,,-99.99,FreeWX-Wi 1.02,2013-04-18 04:32:00,
2013-04-17 21:37:00,60.1,17.8,30.09,North,3,1.0,3.1,19,0.00,,,-99.99,FreeWX-Wi 1.02,2013-04-18 04:37:00,
2013-04-17 21:42:00,59.4,17.1,30.09,North,3,1.0,3.1,19,0.00,,,-99.99,FreeWX-Wi 1.02,2013-04-18 04:42:00,
2013-04-17 21:47:00,58.6,16.5,30.12,North,3,1.0,4.0,19,0.00,,,-99.99,FreeWX-Wi 1.02,2013-04-18 04:47:00,
2013-04-17 21:52:00,58.8,16.7,30.12,North,3,1.0,4.9,19,0.00,,,-99.99,FreeWX-Wi 1.02,2013-04-18 04:52:00,
2013-04-17 21:57:00,57.7,15.8,30.12,North,3,1.0,0.0,19,0.00,,,-99.99,FreeWX-Wi 1.02,2013-04-18 04:57:00,
2013-04-17 22:02:00,57.4,15.4,30.12,North,-999,0.0,2.7,19,0.00,,,-99.99,FreeWX-Wi 1.02,2013-04-18 05:02:00,
2013-04-17 22:07:00,57.9,16.0,30.12,North,-999,0.0,4.0,19,0.00,,,-99.99,FreeWX-Wi 1.02,2013-04-18 05:07:00,
2013-04-17 22:12:00,57.2,15.3,30.12,North,-999,0.0,2.7,19,0.00,,,-99.99,FreeWX-Wi 1.02,2013-04-18 05:12:00,
2013-04-17 22:17:00,57.0,16.3,30.12,North,-999,0.0,3.6,20,0.00,,,-99.99,FreeWX-Wi 1.02,2013-04-18 05:17:00,
2013-04-17 22:22:00,57.4,15.4,30.12,North,-999,0.0,4.9,19,0.00,,,-99.99,FreeWX-Wi 1.02,2013-04-18 05:22:00,
2013-04-17 22:27:00,57.0,16.3,30.12,North,-999,0.0,3.6,20,0.00,,,-99.99,FreeWX-Wi 1.02,2013-04-18 05:27:00,
2013-04-17 22:32:00,57.2,15.3,30.12,North,-999,0.0,2.2,19,0.00,,,-99.99,FreeWX-Wi 1.02,2013-04-18 05:32:00,
2013-04-17 22:37:00,58.1,16.2,30.12,North,3,1.0,3.6,19,0.00,,,-99.99,FreeWX-Wi 1.02,2013-04-18 05:37:00,
2013-04-17 22:42:00,58.1,16.2,30.12,North,3,1.0,2.7,19,0.00,,,-99.99,FreeWX-Wi 1.02,2013-04-18 05:42:00,
2013-04-17 22:47:00,58.3,16.2,30.09,North,3,1.0,3.1,19,0.00,,,-99.99,FreeWX-Wi 1.02,2013-04-18 05:47:00,
2013-04-17 22:52:00,57.9,16.0,30.09,North,3,1.0,2.7,19,0.00,,,-99.99,FreeWX-Wi 1.02,2013-04-18 05:52:00,
2013-04-17 22:57:00,57.0,16.3,30.09,North,3,1.0,0.0,20,0.00,,,-99.99,FreeWX-Wi 1.02,2013-04-18 05:57:00,
2013-04-17 23:02:00,55.9,15.4,30.12,North,3,1.0,3.1,20,0.00,,,-99.99,FreeWX-Wi 1.02,2013-04-18 06:02:00,
2013-04-17 23:07:00,54.9,14.5,30.12,North,3,1.0,0.0,20,0.00,,,-99.99,FreeWX-Wi 1.02,2013-04-18 06:07:00,
2013-04-17 23:12:00,54.0,13.8,30.12,North,-999,0.0,0.0,20,0.00,,,-99.99,FreeWX-Wi 1.02,2013-04-18 06:12:00,
2013-04-17 23:17:00,53.4,14.5,30.12,North,-999,0.0,4.0,21,0.00,,,-99.99,FreeWX-Wi 1.02,2013-04-18 06:17:00,
2013-04-17 23:22:00,53.2,14.4,30.12,North,-999,0.0,3.1,21,0.00,,,-99.99,FreeWX-Wi 1.02,2013-04-18 06:22:00,
2013-04-17 23:27:00,52.7,13.8,30.12,North,-999,0.0,0.0,21,0.00,,,-99.99,FreeWX-Wi 1.02,2013-04-18 06:27:00,
2013-04-17 23:32:00,52.3,13.6,30.12,North,-999,0.0,2.2,21,0.00,,,-99.99,FreeWX-Wi 1.02,2013-04-18 06:32:00,
2013-04-17 23:37:00,51.8,13.1,30.12,North,-999,0.0,2.7,21,0.00,,,-99.99,FreeWX-Wi 1.02,2013-04-18 06:37:00,
2013-04-17 23:42:00,52.2,13.5,30.12,North,-999,0.0,3.1,21,0.00,,,-99.99,FreeWX-Wi 1.02,2013-04-18 06:42:00,
2013-04-17 23:47:00,52.0,13.3,30.12,North,-999,0.0,2.7,21,0.00,,,-99.99,FreeWX-Wi 1.02,2013-04-18 06:47:00,
2013-04-17 23:52:00,51.8,13.1,30.12,North,-999,0.0,3.1,21,0.00,,,-99.99,FreeWX-Wi 1.02,2013-04-18 06:52:00,
2013-04-17 23:57:00,51.6,12.9,30.12,North,-999,0.0,2.7,21,0.00,,,-99.99,FreeWX-Wi 1.02,2013-04-18 06:57:00,